createdAt,value
2024-01-11T00:00:37.748Z,34.27
2024-01-11T00:03:04.904Z,35.33
2024-01-11T00:05:31.631Z,27.50
2024-01-11T00:07:58.577Z,29.83
2024-01-11T00:10:25.616Z,36.90
2024-01-11T00:12:52.388Z,32.83
2024-01-11T00:15:19.223Z,32.78
2024-01-11T00:17:46.245Z,25.83
2024-01-11T00:20:13.104Z,42.77
2024-01-11T00:22:39.913Z,35.80
2024-01-11T00:25:06.874Z,35.78
2024-01-11T00:27:33.600Z,36.33
2024-01-11T00:30:00.439Z,38.13
2024-01-11T00:32:27.391Z,39.78
2024-01-11T00:34:54.277Z,36.10
2024-01-11T00:37:21.065Z,41.55
2024-01-11T00:39:47.734Z,41.78
2024-01-11T00:42:14.473Z,37.05
2024-01-11T00:44:41.171Z,41.58
2024-01-11T00:47:07.890Z,40.25
2024-01-11T00:49:34.668Z,37.33
2024-01-11T00:52:01.368Z,38.85
2024-01-11T00:54:28.080Z,39.95
2024-01-11T00:56:54.743Z,36.08
2024-01-11T00:59:21.453Z,38.72
2024-01-11T01:01:51.462Z,33.47
2024-01-11T01:04:18.175Z,42.65
2024-01-11T01:06:45.022Z,39.10
2024-01-11T01:09:11.833Z,31.65
2024-01-11T01:11:38.687Z,43.05
2024-01-11T01:14:06.441Z,39.38
2024-01-11T01:16:33.213Z,40.88
2024-01-11T01:19:00.180Z,44.13
2024-01-11T01:21:27.116Z,37.08
2024-01-11T01:23:53.799Z,38.65
2024-01-11T01:26:20.573Z,39.83
2024-01-11T01:28:47.362Z,38.00
2024-01-11T01:31:14.120Z,31.23
2024-01-11T01:33:41.769Z,25.05
2024-01-11T01:36:11.902Z,33.25
2024-01-11T01:38:38.803Z,41.15
2024-01-11T01:41:05.678Z,28.30
2024-01-11T01:43:32.446Z,27.48
2024-01-11T01:46:00.028Z,30.08
2024-01-11T01:48:28.412Z,27.98
2024-01-11T01:50:56.278Z,26.40
2024-01-11T01:55:53.574Z,35.38
2024-01-11T01:58:21.405Z,32.90
2024-01-11T02:03:17.462Z,31.02
2024-01-11T02:05:44.649Z,29.08
2024-01-11T02:08:17.597Z,33.20
2024-01-11T02:10:44.539Z,29.45
2024-01-11T02:13:12.591Z,36.87
2024-01-11T02:15:39.285Z,31.10
2024-01-11T02:18:06.184Z,34.22
2024-01-11T02:20:33.345Z,31.67
2024-01-11T02:23:06.503Z,31.17
2024-01-11T02:25:33.303Z,30.98
2024-01-11T02:28:00.058Z,31.88
2024-01-11T02:30:26.939Z,26.88
2024-01-11T02:32:54.789Z,27.67
2024-01-11T02:35:22.696Z,29.08
2024-01-11T02:37:49.888Z,24.73
2024-01-11T02:40:16.802Z,23.30
2024-01-11T02:42:43.566Z,26.75
2024-01-11T02:45:12.452Z,17.15
2024-01-11T02:47:40.432Z,23.80
2024-01-11T02:50:08.186Z,23.55
2024-01-11T02:52:35.538Z,27.85
2024-01-11T02:55:02.252Z,24.75
2024-01-11T02:57:29.022Z,23.00
2024-01-11T02:59:55.761Z,17.35
2024-01-11T03:02:22.742Z,28.00
2024-01-11T03:04:49.515Z,22.48
2024-01-11T03:07:16.311Z,24.20
2024-01-11T03:09:43.150Z,28.05
2024-01-11T03:12:09.887Z,20.77
2024-01-11T03:14:36.753Z,26.50
2024-01-11T03:17:03.674Z,24.30
2024-01-11T03:19:30.472Z,23.45
2024-01-11T03:21:57.218Z,26.08
2024-01-11T03:24:23.943Z,24.58
2024-01-11T03:26:50.657Z,22.42
2024-01-11T03:29:17.414Z,24.92
2024-01-11T03:31:44.166Z,31.05
2024-01-11T03:34:11.042Z,25.33
2024-01-11T03:36:37.816Z,20.50
2024-01-11T03:39:04.520Z,27.85
2024-01-11T03:41:31.284Z,18.38
2024-01-11T03:43:58.001Z,21.02
2024-01-11T03:46:24.760Z,23.33
2024-01-11T03:48:51.611Z,25.50
2024-01-11T03:51:18.410Z,24.50
2024-01-11T03:53:45.198Z,21.80
2024-01-11T03:56:12.088Z,24.27
2024-01-11T03:58:38.848Z,20.58
2024-01-11T04:01:05.649Z,25.52
2024-01-11T04:03:32.365Z,26.33
2024-01-11T04:05:59.127Z,24.42
2024-01-11T04:08:25.899Z,25.08
2024-01-11T04:10:52.619Z,24.02
2024-01-11T04:13:19.754Z,18.50
2024-01-11T04:15:47.098Z,16.88
2024-01-11T04:18:14.006Z,22.85
2024-01-11T04:20:40.967Z,20.80
2024-01-11T04:23:07.759Z,24.63
2024-01-11T04:25:34.581Z,29.27
2024-01-11T04:28:01.272Z,21.95
2024-01-11T04:30:28.186Z,27.23
2024-01-11T04:32:55.188Z,23.20
2024-01-11T04:35:21.995Z,27.67
2024-01-11T04:37:48.677Z,22.27
2024-01-11T04:40:15.403Z,30.73
2024-01-11T04:42:42.100Z,30.42
2024-01-11T04:45:09.256Z,26.10
2024-01-11T04:47:36.140Z,27.25
2024-01-11T04:50:03.073Z,23.92
2024-01-11T04:52:29.764Z,21.45
2024-01-11T04:54:56.470Z,23.27
2024-01-11T04:57:23.140Z,20.05
2024-01-11T04:59:49.865Z,18.77
2024-01-11T05:02:16.735Z,22.33
2024-01-11T05:04:43.515Z,25.42
2024-01-11T05:07:10.325Z,22.67
2024-01-11T05:09:37.054Z,21.42
2024-01-11T05:12:04.040Z,33.40
2024-01-11T05:14:30.808Z,35.23
2024-01-11T05:16:57.654Z,23.58
2024-01-11T05:19:24.534Z,20.95
2024-01-11T05:21:51.241Z,19.42
2024-01-11T05:24:17.973Z,17.50
2024-01-11T05:26:44.740Z,21.25
2024-01-11T05:29:11.518Z,24.48
2024-01-11T05:31:38.429Z,19.20
2024-01-11T05:34:05.462Z,20.23
2024-01-11T05:36:32.307Z,22.90
2024-01-11T05:38:59.015Z,22.95
2024-01-11T05:41:25.743Z,23.92
2024-01-11T05:43:52.402Z,23.60
2024-01-11T05:46:19.120Z,21.60
2024-01-11T05:48:45.920Z,21.15
2024-01-11T05:51:12.689Z,21.38
2024-01-11T05:53:39.618Z,23.50
2024-01-11T05:56:12.347Z,26.40
2024-01-11T05:58:40.752Z,19.35
2024-01-11T06:01:07.809Z,18.40
2024-01-11T06:03:34.705Z,24.67
2024-01-11T06:06:02.318Z,24.40
2024-01-11T06:08:30.503Z,25.63
2024-01-11T06:10:57.712Z,23.95
2024-01-11T06:13:24.528Z,27.20
2024-01-11T06:15:51.337Z,23.63
2024-01-11T06:18:18.231Z,23.83
2024-01-11T06:20:45.197Z,25.73
2024-01-11T06:23:11.925Z,23.35
2024-01-11T06:25:38.721Z,17.38
2024-01-11T06:28:05.761Z,25.08
2024-01-11T06:30:32.520Z,31.77
2024-01-11T06:32:59.367Z,21.10
2024-01-11T06:35:26.235Z,24.17
2024-01-11T06:37:52.966Z,26.83
2024-01-11T06:40:19.677Z,28.42
2024-01-11T06:42:46.331Z,29.55
2024-01-11T06:45:13.072Z,26.52
2024-01-11T06:47:40.061Z,20.70
2024-01-11T06:50:07.763Z,23.98
2024-01-11T06:52:34.603Z,25.27
2024-01-11T06:55:01.307Z,20.90
2024-01-11T06:57:28.013Z,21.45
2024-01-11T06:59:54.797Z,19.17
2024-01-11T07:02:21.599Z,20.55
2024-01-11T07:04:48.465Z,25.13
2024-01-11T07:07:15.199Z,24.50
2024-01-11T07:09:41.906Z,29.27
2024-01-11T07:12:08.718Z,27.35
2024-01-11T07:14:35.556Z,28.58
2024-01-11T07:17:02.385Z,21.63
2024-01-11T07:19:29.162Z,25.92
2024-01-11T07:21:55.998Z,23.30
2024-01-11T07:24:22.655Z,30.88
2024-01-11T07:26:49.454Z,24.35
2024-01-11T07:29:16.263Z,21.98
2024-01-11T07:31:43.089Z,27.58
2024-01-11T07:34:09.985Z,22.90
2024-01-11T07:36:36.738Z,28.80
2024-01-11T07:39:03.553Z,24.60
2024-01-11T07:41:30.409Z,31.23
2024-01-11T07:43:57.211Z,30.83
2024-01-11T07:46:33.011Z,31.35
2024-01-11T07:49:05.970Z,27.15
2024-01-11T07:51:33.355Z,33.63
2024-01-11T07:54:00.087Z,25.65
2024-01-11T07:56:27.574Z,25.77
2024-01-11T07:58:54.425Z,25.70
2024-01-11T08:01:21.356Z,35.63
2024-01-11T08:03:48.175Z,29.85
2024-01-11T08:06:15.047Z,29.20
2024-01-11T08:08:41.955Z,24.63
2024-01-11T08:11:09.278Z,30.10
2024-01-11T08:13:36.239Z,28.45
2024-01-11T08:16:03.135Z,30.50
2024-01-11T08:18:30.870Z,26.52
2024-01-11T08:20:57.926Z,27.08
2024-01-11T08:23:24.676Z,35.30
2024-01-11T08:25:51.462Z,29.70
2024-01-11T08:28:18.160Z,33.67
2024-01-11T08:30:45.096Z,25.58
2024-01-11T08:35:38.696Z,28.77
2024-01-11T08:38:05.354Z,24.40
2024-01-11T08:40:32.026Z,31.92
2024-01-11T08:42:58.705Z,30.92
2024-01-11T08:45:25.450Z,26.17
2024-01-11T08:47:52.232Z,26.50
2024-01-11T08:50:22.661Z,30.63
2024-01-11T08:52:50.842Z,41.45
2024-01-11T08:55:17.537Z,47.35
2024-01-11T08:57:44.305Z,38.10
2024-01-11T09:00:11.691Z,45.33
2024-01-11T09:02:38.474Z,42.13
2024-01-11T09:05:05.643Z,35.97
2024-01-11T09:07:35.962Z,39.83
2024-01-11T09:10:02.718Z,45.30
2024-01-11T09:12:29.517Z,39.97
2024-01-11T09:14:56.217Z,33.05
2024-01-11T09:17:23.321Z,52.45
2024-01-11T09:19:50.601Z,46.40
2024-01-11T09:22:17.733Z,39.92
2024-01-11T09:24:44.426Z,31.47
2024-01-11T09:27:11.168Z,46.65
2024-01-11T09:29:37.995Z,40.20
2024-01-11T09:32:05.215Z,40.08
2024-01-11T09:34:32.099Z,43.17
2024-01-11T09:36:59.201Z,38.08
2024-01-11T09:39:26.006Z,45.55
2024-01-11T09:41:59.093Z,45.20
2024-01-11T09:44:27.368Z,27.73
2024-01-11T09:46:55.251Z,38.58
2024-01-11T09:49:23.800Z,36.70
2024-01-11T09:51:52.005Z,47.72
2024-01-11T09:54:20.449Z,33.58
2024-01-11T09:56:47.340Z,35.25
2024-01-11T09:59:15.114Z,35.08
2024-01-11T10:04:09.258Z,31.63
2024-01-11T10:06:39.709Z,33.80
2024-01-11T10:09:06.417Z,35.45
2024-01-11T10:11:33.130Z,43.47
2024-01-11T10:13:59.792Z,38.63
2024-01-11T10:16:26.495Z,31.80
2024-01-11T10:18:55.973Z,40.65
2024-01-11T10:21:23.213Z,24.88
2024-01-11T10:23:52.881Z,43.57
2024-01-11T10:26:20.365Z,29.15
2024-01-11T10:28:47.899Z,32.65
2024-01-11T10:31:15.000Z,34.83
2024-01-11T10:33:42.408Z,40.07
2024-01-11T10:36:09.383Z,45.25
2024-01-11T10:38:40.193Z,45.15
2024-01-11T10:41:08.070Z,34.58
2024-01-11T10:43:39.134Z,34.05
2024-01-11T10:46:06.578Z,36.38
2024-01-11T10:48:38.421Z,43.72
2024-01-11T10:51:09.816Z,41.25
2024-01-11T10:53:45.595Z,38.88
2024-01-11T10:56:13.707Z,45.42
2024-01-11T10:58:46.264Z,67.10
2024-01-11T11:01:14.163Z,100.30
2024-01-11T11:06:09.859Z,53.67
2024-01-11T11:08:38.450Z,37.70
2024-01-11T11:11:06.029Z,42.08
2024-01-11T11:13:33.781Z,46.63
2024-01-11T11:16:02.234Z,44.65
2024-01-11T11:18:29.609Z,44.92
2024-01-11T11:20:56.369Z,40.83
2024-01-11T11:23:23.077Z,39.53
2024-01-11T11:25:50.579Z,42.92
2024-01-11T11:28:19.096Z,49.03
2024-01-11T11:30:49.270Z,52.90
2024-01-11T11:33:20.963Z,47.47
2024-01-11T11:35:49.057Z,52.17
2024-01-11T11:40:52.726Z,61.45
2024-01-11T11:43:21.512Z,53.00
2024-01-11T11:45:49.993Z,39.97
2024-01-11T11:48:31.857Z,54.30
2024-01-11T11:51:10.162Z,44.72
2024-01-11T11:53:38.578Z,40.15
2024-01-11T11:56:06.130Z,33.38
2024-01-11T11:58:34.170Z,41.65
2024-01-11T12:03:31.231Z,52.65
2024-01-11T12:05:58.949Z,66.80
2024-01-11T12:08:25.825Z,57.40
2024-01-11T12:10:53.339Z,53.35
2024-01-11T12:13:20.318Z,46.30
2024-01-11T12:15:47.679Z,39.17
2024-01-11T12:18:14.871Z,52.53
2024-01-11T12:20:41.826Z,61.92
2024-01-11T12:23:09.134Z,51.53
2024-01-11T12:25:36.910Z,43.10
2024-01-11T12:28:03.867Z,45.20
2024-01-11T12:30:30.641Z,41.78
2024-01-11T12:32:57.935Z,32.00
2024-01-11T12:35:24.891Z,37.85
2024-01-11T12:38:10.125Z,40.20
2024-01-11T12:40:38.025Z,41.75
2024-01-11T12:43:05.959Z,42.30
2024-01-11T12:48:01.189Z,47.28
2024-01-11T12:53:12.802Z,66.78
2024-01-11T12:55:48.290Z,41.70
2024-01-11T12:58:22.031Z,42.90
2024-01-11T13:00:49.235Z,37.57
2024-01-11T13:03:15.966Z,39.97
2024-01-11T13:05:42.833Z,41.00
2024-01-11T13:08:10.309Z,31.58
2024-01-11T13:10:38.125Z,41.58
2024-01-11T13:13:09.226Z,43.92
2024-01-11T13:15:36.619Z,39.00
2024-01-11T13:18:04.030Z,37.33
2024-01-11T13:20:30.829Z,39.53
2024-01-11T13:23:16.460Z,39.38
2024-01-11T13:25:43.887Z,37.88
2024-01-11T13:28:11.561Z,38.22
2024-01-11T13:30:42.438Z,49.53
2024-01-11T13:33:10.497Z,49.60
2024-01-11T13:35:38.099Z,38.05
2024-01-11T13:38:05.584Z,38.50
2024-01-11T13:40:33.345Z,32.70
2024-01-11T13:43:00.724Z,41.22
2024-01-11T13:45:27.819Z,33.88
2024-01-11T13:47:55.497Z,37.17
2024-01-11T13:50:26.132Z,33.90
2024-01-11T13:52:53.992Z,39.13
2024-01-11T13:55:21.087Z,50.50
2024-01-11T13:57:48.653Z,41.28
2024-01-11T14:00:15.576Z,55.53
2024-01-11T14:02:42.366Z,46.50
2024-01-11T14:05:09.435Z,49.58
2024-01-11T14:07:36.566Z,47.28
2024-01-11T14:10:03.414Z,43.53
2024-01-11T14:12:30.423Z,53.47
2024-01-11T14:14:57.113Z,53.78
2024-01-11T14:17:24.003Z,47.90
2024-01-11T14:19:50.905Z,45.70
2024-01-11T14:22:17.753Z,49.65
2024-01-11T14:24:44.566Z,49.95
2024-01-11T14:27:11.347Z,59.30
2024-01-11T14:29:38.151Z,54.65
2024-01-11T14:32:05.288Z,42.80
2024-01-11T14:34:32.305Z,57.27
2024-01-11T14:36:59.565Z,45.50
2024-01-11T14:39:26.327Z,297.52
2024-01-11T14:41:53.876Z,158.38
2024-01-11T14:44:20.697Z,114.07
2024-01-11T14:46:47.533Z,77.38
2024-01-11T14:49:14.358Z,58.85
2024-01-11T14:51:41.121Z,52.65
2024-01-11T14:54:07.933Z,55.03
2024-01-11T14:56:34.779Z,52.67
2024-01-11T14:59:02.376Z,64.18
2024-01-11T15:01:29.279Z,75.63
2024-01-11T15:03:56.308Z,88.63
2024-01-11T15:06:23.547Z,74.75
2024-01-11T15:08:50.561Z,72.05
2024-01-11T15:11:17.431Z,59.50
2024-01-11T15:13:44.255Z,61.42
2024-01-11T15:16:11.046Z,60.50
2024-01-11T15:18:38.080Z,48.53
2024-01-11T15:21:05.247Z,59.50
2024-01-11T15:23:32.093Z,46.27
2024-01-11T15:25:59.102Z,46.47
2024-01-11T15:28:25.972Z,42.17
2024-01-11T15:30:52.813Z,36.63
2024-01-11T15:33:19.749Z,50.38
2024-01-11T15:35:46.619Z,39.58
2024-01-11T15:38:13.608Z,46.97
2024-01-11T15:40:40.367Z,61.10
2024-01-11T15:43:07.076Z,52.60
2024-01-11T15:45:34.779Z,56.20
2024-01-11T15:48:02.919Z,46.67
2024-01-11T15:50:30.154Z,43.55
2024-01-11T15:52:56.884Z,44.33
2024-01-11T15:55:23.549Z,52.35
2024-01-11T15:57:50.204Z,71.15
2024-01-11T16:00:17.224Z,47.13
2024-01-11T16:02:44.142Z,48.22
2024-01-11T16:05:11.380Z,59.97
2024-01-11T16:07:38.427Z,75.75
2024-01-11T16:10:05.581Z,73.60
2024-01-11T16:12:32.376Z,40.93
2024-01-11T16:15:00.718Z,50.05
2024-01-11T16:17:28.406Z,52.67
2024-01-11T16:19:56.148Z,71.13
2024-01-11T16:22:22.919Z,75.50
2024-01-11T16:24:49.838Z,55.25
2024-01-11T16:27:16.573Z,57.40
2024-01-11T16:29:43.804Z,53.25
2024-01-11T16:32:10.741Z,57.83
2024-01-11T16:34:37.561Z,51.47
2024-01-11T16:37:04.448Z,54.00
2024-01-11T16:39:31.695Z,80.05
2024-01-11T16:41:58.455Z,81.22
2024-01-11T16:44:25.148Z,64.90
2024-01-11T16:46:51.930Z,60.80
2024-01-11T16:49:18.731Z,55.50
2024-01-11T16:51:49.611Z,61.00
2024-01-11T16:54:18.736Z,64.72
2024-01-11T16:56:45.847Z,61.58
2024-01-11T16:59:12.575Z,62.33
2024-01-11T17:01:39.568Z,56.97
2024-01-11T17:04:07.573Z,51.00
2024-01-11T17:06:35.358Z,84.72
2024-01-11T17:09:02.681Z,69.73
2024-01-11T17:11:29.717Z,70.88
2024-01-11T17:13:56.515Z,73.13
2024-01-11T17:16:23.257Z,63.20
2024-01-11T17:18:50.444Z,68.05
2024-01-11T17:21:17.334Z,62.85
2024-01-11T17:23:44.175Z,56.28
2024-01-11T17:26:11.602Z,52.05
2024-01-11T17:28:38.423Z,52.35
2024-01-11T17:31:05.265Z,54.83
2024-01-11T17:33:32.419Z,59.33
2024-01-11T17:35:59.211Z,58.97
2024-01-11T17:38:25.927Z,55.28
2024-01-11T17:40:52.679Z,72.47
2024-01-11T17:43:19.378Z,66.18
2024-01-11T17:45:46.985Z,49.08
2024-01-11T17:48:13.809Z,46.00
2024-01-11T17:50:40.560Z,41.88
2024-01-11T17:53:07.567Z,57.90
2024-01-11T17:55:35.000Z,71.10
2024-01-11T17:58:01.729Z,59.05
2024-01-11T18:00:28.479Z,57.05
2024-01-11T18:02:55.287Z,55.08
2024-01-11T18:05:22.248Z,53.22
2024-01-11T18:07:49.328Z,46.83
2024-01-11T18:10:16.071Z,56.83
2024-01-11T18:12:42.820Z,63.22
2024-01-11T18:15:09.953Z,52.42
2024-01-11T18:17:36.870Z,51.63
2024-01-11T18:20:03.792Z,56.45
2024-01-11T18:22:33.042Z,47.05
2024-01-11T18:24:59.991Z,50.88
2024-01-11T18:27:26.684Z,60.88
2024-01-11T18:29:53.458Z,53.95
2024-01-11T18:32:20.616Z,60.35
2024-01-11T18:34:47.418Z,55.03
2024-01-11T18:37:14.178Z,64.05
2024-01-11T18:39:43.801Z,55.22
2024-01-11T18:42:10.597Z,63.58
2024-01-11T18:44:37.446Z,74.50
2024-01-11T18:47:04.388Z,68.68
2024-01-11T18:49:31.227Z,74.68
2024-01-11T18:51:57.946Z,67.47
2024-01-11T18:54:24.785Z,59.40
2024-01-11T18:56:51.597Z,73.25
2024-01-11T18:59:18.345Z,67.88
2024-01-11T19:01:48.797Z,64.28
2024-01-11T19:04:16.193Z,56.65
2024-01-11T19:06:43.297Z,58.10
2024-01-11T19:09:10.059Z,75.70
2024-01-11T19:11:36.784Z,80.07
2024-01-11T19:14:03.531Z,92.72
2024-01-11T19:16:30.262Z,82.22
2024-01-11T19:18:57.157Z,76.03
2024-01-11T19:21:23.961Z,69.20
2024-01-11T19:23:50.771Z,128.48
2024-01-11T19:26:17.539Z,101.13
2024-01-11T19:28:44.259Z,99.10
2024-01-11T19:31:11.120Z,81.75
2024-01-11T19:33:37.903Z,78.68
2024-01-11T19:36:04.929Z,71.60
2024-01-11T19:38:31.923Z,56.90
2024-01-11T19:40:58.646Z,72.80
2024-01-11T19:43:25.302Z,76.68
2024-01-11T19:45:52.029Z,84.80
2024-01-11T19:48:19.077Z,75.80
2024-01-11T19:50:46.083Z,61.05
2024-01-11T19:53:12.938Z,67.95
2024-01-11T19:55:39.676Z,78.55
2024-01-11T19:58:06.610Z,58.63
2024-01-11T20:00:33.406Z,69.40
2024-01-11T20:03:00.233Z,59.42
2024-01-11T20:05:27.264Z,50.28
2024-01-11T20:07:54.022Z,74.70
2024-01-11T20:10:20.743Z,65.63
2024-01-11T20:12:47.480Z,63.55
2024-01-11T20:15:14.330Z,67.40
2024-01-11T20:17:41.216Z,60.50
2024-01-11T20:20:08.309Z,50.65
2024-01-11T20:22:35.072Z,51.40
2024-01-11T20:25:01.773Z,55.35
2024-01-11T20:27:28.490Z,66.50
2024-01-11T20:29:55.331Z,56.40
2024-01-11T20:32:22.067Z,44.80
2024-01-11T20:34:49.093Z,43.58
2024-01-11T20:37:15.839Z,56.10
2024-01-11T20:39:42.562Z,60.90
2024-01-11T20:42:09.403Z,60.92
2024-01-11T20:44:39.422Z,61.60
2024-01-11T20:47:06.147Z,61.08
2024-01-11T20:49:33.049Z,53.78
2024-01-11T20:51:59.849Z,47.83
2024-01-11T20:54:26.591Z,52.97
2024-01-11T20:56:53.576Z,63.55
2024-01-11T20:59:20.264Z,60.30
2024-01-11T21:01:46.985Z,48.88
2024-01-11T21:04:13.719Z,45.90
2024-01-11T21:06:40.564Z,51.47
2024-01-11T21:09:07.492Z,64.55
2024-01-11T21:11:34.594Z,46.42
2024-01-11T21:14:01.311Z,43.20
2024-01-11T21:16:28.884Z,38.83
2024-01-11T21:18:55.770Z,56.97
2024-01-11T21:21:22.643Z,57.40
2024-01-11T21:23:50.704Z,47.05
2024-01-11T21:26:17.514Z,44.30
2024-01-11T21:28:44.296Z,49.83
2024-01-11T21:31:11.130Z,41.05
2024-01-11T21:33:43.630Z,50.95
2024-01-11T21:36:11.090Z,37.08
2024-01-11T21:38:37.833Z,43.90
2024-01-11T21:41:04.749Z,39.88
2024-01-11T21:43:31.956Z,42.42
2024-01-11T21:45:58.957Z,47.55
2024-01-11T21:48:25.777Z,40.28
2024-01-11T21:50:52.560Z,32.22
2024-01-11T21:53:19.326Z,37.22
2024-01-11T21:55:46.100Z,42.45
2024-01-11T21:58:12.816Z,44.95
2024-01-11T22:00:39.517Z,41.17
2024-01-11T22:03:06.362Z,46.22
2024-01-11T22:05:35.881Z,45.55
2024-01-11T22:08:02.619Z,40.10
2024-01-11T22:10:29.384Z,46.50
2024-01-11T22:12:56.203Z,35.92
2024-01-11T22:15:22.909Z,33.45
2024-01-11T22:17:49.720Z,39.13
2024-01-11T22:20:16.796Z,36.40
2024-01-11T22:22:43.658Z,36.13
2024-01-11T22:25:10.406Z,30.17
2024-01-11T22:27:37.151Z,28.85
2024-01-11T22:30:05.168Z,22.10
2024-01-11T22:32:31.958Z,28.63
2024-01-11T22:34:58.739Z,24.13
2024-01-11T22:37:25.438Z,22.30
2024-01-11T22:39:52.224Z,27.77
2024-01-11T22:42:18.916Z,24.60
2024-01-11T22:44:45.646Z,26.10
2024-01-11T22:47:12.424Z,25.05
2024-01-11T22:49:39.190Z,22.15
2024-01-11T22:52:07.728Z,18.08
2024-01-11T22:54:35.151Z,24.40
2024-01-11T22:57:02.557Z,29.52
2024-01-11T23:01:59.083Z,31.35
2024-01-11T23:04:25.826Z,27.27
2024-01-11T23:06:52.568Z,30.58
2024-01-11T23:09:19.381Z,31.67
2024-01-11T23:11:46.383Z,30.65
2024-01-11T23:14:13.149Z,27.07
2024-01-11T23:16:40.540Z,33.15
2024-01-11T23:19:07.437Z,29.95
2024-01-11T23:21:34.243Z,28.20
2024-01-11T23:24:00.966Z,27.10
2024-01-11T23:26:27.729Z,27.55
2024-01-11T23:28:54.550Z,32.65
2024-01-11T23:31:21.296Z,30.35
2024-01-11T23:33:48.131Z,28.17
2024-01-11T23:36:14.900Z,33.55
2024-01-11T23:38:42.013Z,30.67
2024-01-11T23:41:08.953Z,35.63
2024-01-11T23:43:35.703Z,36.78
2024-01-11T23:46:02.413Z,30.77
2024-01-11T23:48:29.352Z,28.50
2024-01-11T23:50:56.239Z,39.97
2024-01-11T23:53:23.064Z,34.90
2024-01-11T23:55:49.836Z,34.65
2024-01-11T23:58:16.558Z,34.75
